sensor_id;sensor_type;location;lat;lon;timestamp;P1;durP1;ratioP1;P2;durP2;ratioP2
59099;SDS011;44884;52.730;6.964;2024-03-22T00:01:45;12.43;;;9.25;;
59099;SDS011;44884;52.730;6.964;2024-03-22T00:04:11;15.00;;;9.10;;
59099;SDS011;44884;52.730;6.964;2024-03-22T00:06:37;10.30;;;7.75;;
59099;SDS011;44884;52.730;6.964;2024-03-22T00:09:04;11.95;;;8.35;;
59099;SDS011;44884;52.730;6.964;2024-03-22T00:11:30;14.02;;;9.35;;
59099;SDS011;44884;52.730;6.964;2024-03-22T00:13:56;12.52;;;8.77;;
59099;SDS011;44884;52.730;6.964;2024-03-22T00:16:22;12.60;;;8.68;;
59099;SDS011;44884;52.730;6.964;2024-03-22T00:18:48;14.32;;;10.18;;
59099;SDS011;44884;52.730;6.964;2024-03-22T00:21:14;13.48;;;8.35;;
59099;SDS011;44884;52.730;6.964;2024-03-22T00:23:40;14.25;;;8.90;;
59099;SDS011;44884;52.730;6.964;2024-03-22T00:26:06;13.20;;;9.38;;
59099;SDS011;44884;52.730;6.964;2024-03-22T00:28:32;12.32;;;9.15;;
59099;SDS011;44884;52.730;6.964;2024-03-22T00:30:58;13.38;;;9.45;;
59099;SDS011;44884;52.730;6.964;2024-03-22T00:33:24;13.95;;;8.80;;
59099;SDS011;44884;52.730;6.964;2024-03-22T00:35:50;11.32;;;9.07;;
59099;SDS011;44884;52.730;6.964;2024-03-22T00:38:16;12.02;;;9.30;;
59099;SDS011;44884;52.730;6.964;2024-03-22T00:40:42;13.93;;;10.00;;
59099;SDS011;44884;52.730;6.964;2024-03-22T00:43:09;13.65;;;10.50;;
59099;SDS011;44884;52.730;6.964;2024-03-22T00:45:35;11.98;;;8.88;;
59099;SDS011;44884;52.730;6.964;2024-03-22T00:48:01;12.93;;;9.07;;
59099;SDS011;44884;52.730;6.964;2024-03-22T00:50:27;15.77;;;10.00;;
59099;SDS011;44884;52.730;6.964;2024-03-22T00:52:54;13.30;;;9.93;;
59099;SDS011;44884;52.730;6.964;2024-03-22T00:55:23;16.20;;;10.35;;
59099;SDS011;44884;52.730;6.964;2024-03-22T00:57:49;14.60;;;10.30;;
59099;SDS011;44884;52.730;6.964;2024-03-22T01:00:16;14.77;;;9.95;;
59099;SDS011;44884;52.730;6.964;2024-03-22T01:02:42;13.85;;;9.70;;
59099;SDS011;44884;52.730;6.964;2024-03-22T01:05:08;15.70;;;9.15;;
59099;SDS011;44884;52.730;6.964;2024-03-22T01:07:35;14.63;;;9.70;;
59099;SDS011;44884;52.730;6.964;2024-03-22T01:10:01;12.95;;;9.27;;
59099;SDS011;44884;52.730;6.964;2024-03-22T01:12:27;14.75;;;10.32;;
59099;SDS011;44884;52.730;6.964;2024-03-22T01:14:53;16.92;;;11.02;;
59099;SDS011;44884;52.730;6.964;2024-03-22T01:17:19;15.15;;;10.68;;
59099;SDS011;44884;52.730;6.964;2024-03-22T01:19:45;14.98;;;10.75;;
59099;SDS011;44884;52.730;6.964;2024-03-22T01:22:11;14.27;;;10.15;;
59099;SDS011;44884;52.730;6.964;2024-03-22T01:24:37;14.68;;;11.13;;
59099;SDS011;44884;52.730;6.964;2024-03-22T01:27:03;13.40;;;11.20;;
59099;SDS011;44884;52.730;6.964;2024-03-22T01:29:30;16.25;;;12.20;;
59099;SDS011;44884;52.730;6.964;2024-03-22T01:31:57;14.02;;;10.05;;
59099;SDS011;44884;52.730;6.964;2024-03-22T01:34:24;16.52;;;10.90;;
59099;SDS011;44884;52.730;6.964;2024-03-22T01:36:50;13.60;;;11.07;;
59099;SDS011;44884;52.730;6.964;2024-03-22T01:39:16;18.70;;;11.98;;
59099;SDS011;44884;52.730;6.964;2024-03-22T01:41:43;17.23;;;11.10;;
59099;SDS011;44884;52.730;6.964;2024-03-22T01:44:09;14.57;;;11.27;;
59099;SDS011;44884;52.730;6.964;2024-03-22T01:46:37;18.02;;;11.63;;
59099;SDS011;44884;52.730;6.964;2024-03-22T01:49:03;16.75;;;11.80;;
59099;SDS011;44884;52.730;6.964;2024-03-22T01:51:29;18.20;;;12.35;;
59099;SDS011;44884;52.730;6.964;2024-03-22T01:53:55;15.68;;;10.88;;
59099;SDS011;44884;52.730;6.964;2024-03-22T01:56:21;17.30;;;12.32;;
59099;SDS011;44884;52.730;6.964;2024-03-22T01:58:47;16.73;;;11.18;;
59099;SDS011;44884;52.730;6.964;2024-03-22T02:01:13;16.08;;;10.90;;
59099;SDS011;44884;52.730;6.964;2024-03-22T02:03:39;18.48;;;11.95;;
59099;SDS011;44884;52.730;6.964;2024-03-22T02:06:05;16.25;;;12.38;;
59099;SDS011;44884;52.730;6.964;2024-03-22T02:08:31;17.55;;;12.07;;
59099;SDS011;44884;52.730;6.964;2024-03-22T02:10:57;17.30;;;11.38;;
59099;SDS011;44884;52.730;6.964;2024-03-22T02:13:23;18.83;;;12.20;;
59099;SDS011;44884;52.730;6.964;2024-03-22T02:15:49;17.70;;;12.05;;
59099;SDS011;44884;52.730;6.964;2024-03-22T02:18:15;21.08;;;13.77;;
59099;SDS011;44884;52.730;6.964;2024-03-22T02:20:41;18.98;;;12.43;;
59099;SDS011;44884;52.730;6.964;2024-03-22T02:23:07;17.95;;;11.93;;
59099;SDS011;44884;52.730;6.964;2024-03-22T02:25:33;19.50;;;13.82;;
59099;SDS011;44884;52.730;6.964;2024-03-22T02:27:59;18.23;;;12.77;;
59099;SDS011;44884;52.730;6.964;2024-03-22T02:30:25;19.10;;;12.60;;
59099;SDS011;44884;52.730;6.964;2024-03-22T02:32:51;18.92;;;12.63;;
59099;SDS011;44884;52.730;6.964;2024-03-22T02:35:17;18.77;;;12.00;;
59099;SDS011;44884;52.730;6.964;2024-03-22T02:37:43;21.85;;;13.50;;
59099;SDS011;44884;52.730;6.964;2024-03-22T02:40:10;18.27;;;12.68;;
59099;SDS011;44884;52.730;6.964;2024-03-22T02:42:36;21.55;;;12.80;;
59099;SDS011;44884;52.730;6.964;2024-03-22T02:45:02;20.13;;;13.00;;
59099;SDS011;44884;52.730;6.964;2024-03-22T02:47:28;20.77;;;14.02;;
59099;SDS011;44884;52.730;6.964;2024-03-22T02:49:54;20.13;;;12.95;;
59099;SDS011;44884;52.730;6.964;2024-03-22T02:52:20;18.25;;;13.07;;
59099;SDS011;44884;52.730;6.964;2024-03-22T02:54:46;17.38;;;13.15;;
59099;SDS011;44884;52.730;6.964;2024-03-22T02:57:12;19.73;;;14.23;;
59099;SDS011;44884;52.730;6.964;2024-03-22T02:59:38;20.13;;;13.88;;
59099;SDS011;44884;52.730;6.964;2024-03-22T03:02:04;19.80;;;13.00;;
59099;SDS011;44884;52.730;6.964;2024-03-22T03:04:30;20.83;;;14.00;;
59099;SDS011;44884;52.730;6.964;2024-03-22T03:06:56;19.23;;;14.13;;
59099;SDS011;44884;52.730;6.964;2024-03-22T03:09:22;20.50;;;14.43;;
59099;SDS011;44884;52.730;6.964;2024-03-22T03:11:48;20.15;;;12.98;;
59099;SDS011;44884;52.730;6.964;2024-03-22T03:14:14;21.35;;;13.95;;
59099;SDS011;44884;52.730;6.964;2024-03-22T03:16:40;25.38;;;14.93;;
59099;SDS011;44884;52.730;6.964;2024-03-22T03:19:06;18.42;;;13.18;;
59099;SDS011;44884;52.730;6.964;2024-03-22T03:21:32;24.42;;;14.57;;
59099;SDS011;44884;52.730;6.964;2024-03-22T03:23:58;21.05;;;14.43;;
59099;SDS011;44884;52.730;6.964;2024-03-22T03:26:24;20.08;;;13.48;;
59099;SDS011;44884;52.730;6.964;2024-03-22T03:28:51;21.52;;;13.85;;
59099;SDS011;44884;52.730;6.964;2024-03-22T03:31:17;18.35;;;13.13;;
59099;SDS011;44884;52.730;6.964;2024-03-22T03:33:43;20.35;;;12.90;;
59099;SDS011;44884;52.730;6.964;2024-03-22T03:36:09;24.27;;;14.88;;
59099;SDS011;44884;52.730;6.964;2024-03-22T03:38:35;20.63;;;14.45;;
59099;SDS011;44884;52.730;6.964;2024-03-22T03:41:02;21.42;;;13.63;;
59099;SDS011;44884;52.730;6.964;2024-03-22T03:43:28;20.58;;;14.90;;
59099;SDS011;44884;52.730;6.964;2024-03-22T03:45:55;21.10;;;13.77;;
59099;SDS011;44884;52.730;6.964;2024-03-22T03:48:21;20.67;;;13.63;;
59099;SDS011;44884;52.730;6.964;2024-03-22T03:50:53;20.92;;;14.13;;
59099;SDS011;44884;52.730;6.964;2024-03-22T03:53:20;21.25;;;14.80;;
59099;SDS011;44884;52.730;6.964;2024-03-22T03:55:46;23.38;;;16.20;;
59099;SDS011;44884;52.730;6.964;2024-03-22T03:58:12;21.55;;;14.48;;
59099;SDS011;44884;52.730;6.964;2024-03-22T04:00:38;25.70;;;14.93;;
59099;SDS011;44884;52.730;6.964;2024-03-22T04:03:04;20.23;;;14.27;;
59099;SDS011;44884;52.730;6.964;2024-03-22T04:05:30;23.85;;;15.55;;
59099;SDS011;44884;52.730;6.964;2024-03-22T04:07:56;23.13;;;15.45;;
59099;SDS011;44884;52.730;6.964;2024-03-22T04:10:22;22.25;;;13.60;;
59099;SDS011;44884;52.730;6.964;2024-03-22T04:12:48;22.48;;;15.38;;
59099;SDS011;44884;52.730;6.964;2024-03-22T04:15:14;21.10;;;15.32;;
59099;SDS011;44884;52.730;6.964;2024-03-22T04:17:40;24.58;;;14.63;;
59099;SDS011;44884;52.730;6.964;2024-03-22T04:20:07;22.17;;;15.27;;
59099;SDS011;44884;52.730;6.964;2024-03-22T04:22:33;22.40;;;13.98;;
59099;SDS011;44884;52.730;6.964;2024-03-22T04:25:00;19.35;;;14.27;;
59099;SDS011;44884;52.730;6.964;2024-03-22T04:27:26;18.52;;;13.90;;
59099;SDS011;44884;52.730;6.964;2024-03-22T04:29:52;25.90;;;15.73;;
59099;SDS011;44884;52.730;6.964;2024-03-22T04:32:18;22.73;;;14.98;;
59099;SDS011;44884;52.730;6.964;2024-03-22T04:34:44;26.20;;;15.05;;
59099;SDS011;44884;52.730;6.964;2024-03-22T04:37:10;21.55;;;14.63;;
59099;SDS011;44884;52.730;6.964;2024-03-22T04:39:39;20.75;;;14.23;;
59099;SDS011;44884;52.730;6.964;2024-03-22T04:42:05;24.13;;;14.13;;
59099;SDS011;44884;52.730;6.964;2024-03-22T04:44:32;24.15;;;15.32;;
59099;SDS011;44884;52.730;6.964;2024-03-22T04:46:58;24.35;;;15.63;;
59099;SDS011;44884;52.730;6.964;2024-03-22T04:49:24;22.42;;;15.38;;
59099;SDS011;44884;52.730;6.964;2024-03-22T04:51:50;21.25;;;14.18;;
59099;SDS011;44884;52.730;6.964;2024-03-22T04:54:16;25.95;;;16.10;;
59099;SDS011;44884;52.730;6.964;2024-03-22T04:56:42;22.13;;;14.88;;
59099;SDS011;44884;52.730;6.964;2024-03-22T04:59:08;18.70;;;14.00;;
59099;SDS011;44884;52.730;6.964;2024-03-22T05:01:34;20.92;;;14.20;;
59099;SDS011;44884;52.730;6.964;2024-03-22T05:04:00;24.23;;;14.25;;
59099;SDS011;44884;52.730;6.964;2024-03-22T05:06:26;23.77;;;14.93;;
59099;SDS011;44884;52.730;6.964;2024-03-22T05:08:52;21.05;;;15.25;;
59099;SDS011;44884;52.730;6.964;2024-03-22T05:11:18;20.65;;;14.63;;
59099;SDS011;44884;52.730;6.964;2024-03-22T05:13:44;22.73;;;14.65;;
59099;SDS011;44884;52.730;6.964;2024-03-22T05:16:11;26.92;;;14.95;;
59099;SDS011;44884;52.730;6.964;2024-03-22T05:18:37;24.02;;;16.35;;
59099;SDS011;44884;52.730;6.964;2024-03-22T05:21:03;20.55;;;13.90;;
59099;SDS011;44884;52.730;6.964;2024-03-22T05:23:30;21.38;;;14.88;;
59099;SDS011;44884;52.730;6.964;2024-03-22T05:25:56;20.63;;;13.77;;
59099;SDS011;44884;52.730;6.964;2024-03-22T05:28:21;20.65;;;14.60;;
59099;SDS011;44884;52.730;6.964;2024-03-22T05:30:48;20.88;;;14.40;;
59099;SDS011;44884;52.730;6.964;2024-03-22T05:33:14;17.92;;;13.82;;
59099;SDS011;44884;52.730;6.964;2024-03-22T05:35:40;20.45;;;14.95;;
59099;SDS011;44884;52.730;6.964;2024-03-22T05:38:06;22.65;;;15.13;;
59099;SDS011;44884;52.730;6.964;2024-03-22T05:40:32;21.77;;;14.88;;
59099;SDS011;44884;52.730;6.964;2024-03-22T05:43:03;21.75;;;14.40;;
59099;SDS011;44884;52.730;6.964;2024-03-22T05:45:29;23.90;;;15.63;;
59099;SDS011;44884;52.730;6.964;2024-03-22T05:47:55;23.42;;;15.43;;
59099;SDS011;44884;52.730;6.964;2024-03-22T05:50:21;23.17;;;14.70;;
59099;SDS011;44884;52.730;6.964;2024-03-22T05:52:47;26.92;;;16.08;;
59099;SDS011;44884;52.730;6.964;2024-03-22T05:55:13;28.27;;;18.73;;
59099;SDS011;44884;52.730;6.964;2024-03-22T05:57:39;25.52;;;18.02;;
59099;SDS011;44884;52.730;6.964;2024-03-22T06:00:05;26.98;;;16.42;;
59099;SDS011;44884;52.730;6.964;2024-03-22T06:02:34;24.48;;;18.15;;
59099;SDS011;44884;52.730;6.964;2024-03-22T06:05:00;23.90;;;16.35;;
59099;SDS011;44884;52.730;6.964;2024-03-22T06:07:26;24.50;;;16.45;;
59099;SDS011;44884;52.730;6.964;2024-03-22T06:09:52;27.33;;;18.05;;
59099;SDS011;44884;52.730;6.964;2024-03-22T06:12:18;27.40;;;18.27;;
59099;SDS011;44884;52.730;6.964;2024-03-22T06:14:47;23.95;;;16.20;;
59099;SDS011;44884;52.730;6.964;2024-03-22T06:17:13;23.60;;;16.73;;
59099;SDS011;44884;52.730;6.964;2024-03-22T06:19:40;25.90;;;17.80;;
59099;SDS011;44884;52.730;6.964;2024-03-22T06:22:06;29.27;;;17.17;;
59099;SDS011;44884;52.730;6.964;2024-03-22T06:24:32;23.05;;;15.80;;
59099;SDS011;44884;52.730;6.964;2024-03-22T06:26:58;26.50;;;15.90;;
59099;SDS011;44884;52.730;6.964;2024-03-22T06:29:25;32.45;;;18.20;;
59099;SDS011;44884;52.730;6.964;2024-03-22T06:31:51;22.92;;;15.68;;
59099;SDS011;44884;52.730;6.964;2024-03-22T06:34:17;27.35;;;16.63;;
59099;SDS011;44884;52.730;6.964;2024-03-22T06:36:43;21.23;;;15.25;;
59099;SDS011;44884;52.730;6.964;2024-03-22T06:39:09;25.10;;;18.02;;
59099;SDS011;44884;52.730;6.964;2024-03-22T06:41:35;32.13;;;19.67;;
59099;SDS011;44884;52.730;6.964;2024-03-22T06:44:02;25.95;;;16.23;;
59099;SDS011;44884;52.730;6.964;2024-03-22T06:46:28;26.73;;;17.23;;
59099;SDS011;44884;52.730;6.964;2024-03-22T06:48:54;26.38;;;17.45;;
59099;SDS011;44884;52.730;6.964;2024-03-22T06:51:20;22.95;;;16.15;;
59099;SDS011;44884;52.730;6.964;2024-03-22T06:53:46;26.55;;;16.17;;
59099;SDS011;44884;52.730;6.964;2024-03-22T06:56:13;24.48;;;16.17;;
59099;SDS011;44884;52.730;6.964;2024-03-22T06:58:39;27.05;;;17.85;;
59099;SDS011;44884;52.730;6.964;2024-03-22T07:01:05;27.60;;;17.42;;
59099;SDS011;44884;52.730;6.964;2024-03-22T07:03:31;28.52;;;18.63;;
59099;SDS011;44884;52.730;6.964;2024-03-22T07:05:58;26.23;;;16.80;;
59099;SDS011;44884;52.730;6.964;2024-03-22T07:08:24;26.55;;;17.13;;
59099;SDS011;44884;52.730;6.964;2024-03-22T07:10:50;29.90;;;19.02;;
59099;SDS011;44884;52.730;6.964;2024-03-22T07:13:19;29.88;;;17.08;;
59099;SDS011;44884;52.730;6.964;2024-03-22T07:15:45;25.70;;;17.08;;
59099;SDS011;44884;52.730;6.964;2024-03-22T07:18:13;29.05;;;16.67;;
59099;SDS011;44884;52.730;6.964;2024-03-22T07:20:39;29.20;;;18.92;;
59099;SDS011;44884;52.730;6.964;2024-03-22T07:23:05;29.23;;;19.48;;
59099;SDS011;44884;52.730;6.964;2024-03-22T07:25:31;25.67;;;17.50;;
59099;SDS011;44884;52.730;6.964;2024-03-22T07:27:57;27.95;;;18.88;;
59099;SDS011;44884;52.730;6.964;2024-03-22T07:30:24;26.33;;;16.67;;
59099;SDS011;44884;52.730;6.964;2024-03-22T07:32:50;25.33;;;17.05;;
59099;SDS011;44884;52.730;6.964;2024-03-22T07:35:16;22.13;;;15.23;;
59099;SDS011;44884;52.730;6.964;2024-03-22T07:37:42;29.02;;;17.50;;
59099;SDS011;44884;52.730;6.964;2024-03-22T07:40:08;30.33;;;19.20;;
59099;SDS011;44884;52.730;6.964;2024-03-22T07:42:34;27.30;;;18.70;;
59099;SDS011;44884;52.730;6.964;2024-03-22T07:45:00;29.13;;;17.52;;
59099;SDS011;44884;52.730;6.964;2024-03-22T07:47:26;30.13;;;19.17;;
59099;SDS011;44884;52.730;6.964;2024-03-22T07:49:53;27.77;;;17.58;;
59099;SDS011;44884;52.730;6.964;2024-03-22T07:52:19;25.23;;;17.15;;
59099;SDS011;44884;52.730;6.964;2024-03-22T07:54:45;26.10;;;16.42;;
59099;SDS011;44884;52.730;6.964;2024-03-22T07:57:11;28.52;;;17.42;;
59099;SDS011;44884;52.730;6.964;2024-03-22T07:59:37;26.08;;;17.23;;
59099;SDS011;44884;52.730;6.964;2024-03-22T08:02:03;33.97;;;18.08;;
59099;SDS011;44884;52.730;6.964;2024-03-22T08:04:29;27.23;;;16.17;;
59099;SDS011;44884;52.730;6.964;2024-03-22T08:06:55;27.15;;;17.08;;
59099;SDS011;44884;52.730;6.964;2024-03-22T08:09:22;24.92;;;16.88;;
59099;SDS011;44884;52.730;6.964;2024-03-22T08:11:48;26.90;;;17.55;;
59099;SDS011;44884;52.730;6.964;2024-03-22T08:14:14;29.33;;;16.85;;
59099;SDS011;44884;52.730;6.964;2024-03-22T08:16:41;26.77;;;15.65;;
59099;SDS011;44884;52.730;6.964;2024-03-22T08:19:07;31.45;;;18.48;;
59099;SDS011;44884;52.730;6.964;2024-03-22T08:21:33;25.75;;;17.48;;
59099;SDS011;44884;52.730;6.964;2024-03-22T08:24:00;26.73;;;17.00;;
59099;SDS011;44884;52.730;6.964;2024-03-22T08:26:26;23.48;;;15.55;;
59099;SDS011;44884;52.730;6.964;2024-03-22T08:28:52;28.60;;;16.15;;
59099;SDS011;44884;52.730;6.964;2024-03-22T08:31:18;28.88;;;15.15;;
59099;SDS011;44884;52.730;6.964;2024-03-22T08:33:50;26.87;;;17.33;;
59099;SDS011;44884;52.730;6.964;2024-03-22T08:36:16;25.25;;;17.10;;
59099;SDS011;44884;52.730;6.964;2024-03-22T08:38:42;23.85;;;16.17;;
59099;SDS011;44884;52.730;6.964;2024-03-22T08:41:08;23.60;;;16.33;;
59099;SDS011;44884;52.730;6.964;2024-03-22T08:43:34;21.55;;;15.05;;
59099;SDS011;44884;52.730;6.964;2024-03-22T08:46:00;25.65;;;17.00;;
59099;SDS011;44884;52.730;6.964;2024-03-22T08:48:26;31.48;;;17.52;;
59099;SDS011;44884;52.730;6.964;2024-03-22T08:50:52;29.60;;;18.60;;
59099;SDS011;44884;52.730;6.964;2024-03-22T08:53:18;27.23;;;17.30;;
59099;SDS011;44884;52.730;6.964;2024-03-22T08:55:47;27.23;;;17.23;;
59099;SDS011;44884;52.730;6.964;2024-03-22T08:58:14;25.02;;;16.25;;
59099;SDS011;44884;52.730;6.964;2024-03-22T09:00:41;24.40;;;16.08;;
59099;SDS011;44884;52.730;6.964;2024-03-22T09:03:07;27.17;;;17.30;;
59099;SDS011;44884;52.730;6.964;2024-03-22T09:05:33;24.75;;;16.60;;
59099;SDS011;44884;52.730;6.964;2024-03-22T09:07:59;20.38;;;14.43;;
59099;SDS011;44884;52.730;6.964;2024-03-22T09:10:26;24.95;;;16.42;;
59099;SDS011;44884;52.730;6.964;2024-03-22T09:12:52;25.27;;;15.68;;
59099;SDS011;44884;52.730;6.964;2024-03-22T09:15:18;25.98;;;16.30;;
59099;SDS011;44884;52.730;6.964;2024-03-22T09:17:44;21.95;;;15.60;;
59099;SDS011;44884;52.730;6.964;2024-03-22T09:20:10;33.42;;;16.00;;
59099;SDS011;44884;52.730;6.964;2024-03-22T09:22:37;22.58;;;15.27;;
59099;SDS011;44884;52.730;6.964;2024-03-22T09:25:04;27.33;;;15.57;;
59099;SDS011;44884;52.730;6.964;2024-03-22T09:27:30;26.90;;;16.13;;
59099;SDS011;44884;52.730;6.964;2024-03-22T09:29:57;25.17;;;15.52;;
59099;SDS011;44884;52.730;6.964;2024-03-22T09:32:23;21.85;;;14.52;;
59099;SDS011;44884;52.730;6.964;2024-03-22T09:34:51;21.63;;;15.13;;
59099;SDS011;44884;52.730;6.964;2024-03-22T09:37:17;21.52;;;14.30;;
59099;SDS011;44884;52.730;6.964;2024-03-22T09:39:43;21.00;;;13.55;;
59099;SDS011;44884;52.730;6.964;2024-03-22T09:42:13;24.02;;;15.05;;
59099;SDS011;44884;52.730;6.964;2024-03-22T09:44:44;21.77;;;14.10;;
59099;SDS011;44884;52.730;6.964;2024-03-22T09:47:14;20.15;;;14.27;;
59099;SDS011;44884;52.730;6.964;2024-03-22T09:49:40;21.58;;;13.65;;
59099;SDS011;44884;52.730;6.964;2024-03-22T09:52:11;22.90;;;14.60;;
59099;SDS011;44884;52.730;6.964;2024-03-22T09:54:37;22.55;;;13.88;;
59099;SDS011;44884;52.730;6.964;2024-03-22T09:57:03;19.65;;;13.77;;
59099;SDS011;44884;52.730;6.964;2024-03-22T09:59:32;24.65;;;14.45;;
59099;SDS011;44884;52.730;6.964;2024-03-22T10:01:58;21.15;;;13.20;;
59099;SDS011;44884;52.730;6.964;2024-03-22T10:04:25;24.02;;;13.43;;
59099;SDS011;44884;52.730;6.964;2024-03-22T10:06:51;21.20;;;13.60;;
59099;SDS011;44884;52.730;6.964;2024-03-22T10:09:17;20.48;;;12.93;;
59099;SDS011;44884;52.730;6.964;2024-03-22T10:11:43;18.80;;;13.23;;
59099;SDS011;44884;52.730;6.964;2024-03-22T10:14:09;24.98;;;13.73;;
59099;SDS011;44884;52.730;6.964;2024-03-22T10:16:36;20.95;;;13.00;;
59099;SDS011;44884;52.730;6.964;2024-03-22T10:19:02;21.52;;;14.48;;
59099;SDS011;44884;52.730;6.964;2024-03-22T10:21:28;22.15;;;13.73;;
59099;SDS011;44884;52.730;6.964;2024-03-22T10:23:54;22.13;;;14.40;;
59099;SDS011;44884;52.730;6.964;2024-03-22T10:26:20;18.20;;;12.38;;
59099;SDS011;44884;52.730;6.964;2024-03-22T10:28:46;17.65;;;11.80;;
59099;SDS011;44884;52.730;6.964;2024-03-22T10:31:13;19.65;;;12.77;;
59099;SDS011;44884;52.730;6.964;2024-03-22T10:33:42;20.92;;;11.68;;
59099;SDS011;44884;52.730;6.964;2024-03-22T10:36:10;20.23;;;12.63;;
59099;SDS011;44884;52.730;6.964;2024-03-22T10:38:36;18.60;;;12.32;;
59099;SDS011;44884;52.730;6.964;2024-03-22T10:41:04;20.10;;;12.90;;
59099;SDS011;44884;52.730;6.964;2024-03-22T10:43:30;19.27;;;11.82;;
59099;SDS011;44884;52.730;6.964;2024-03-22T10:45:57;16.42;;;11.35;;
59099;SDS011;44884;52.730;6.964;2024-03-22T10:48:25;20.63;;;12.13;;
59099;SDS011;44884;52.730;6.964;2024-03-22T10:50:54;17.55;;;12.05;;
59099;SDS011;44884;52.730;6.964;2024-03-22T10:53:22;16.40;;;11.85;;
59099;SDS011;44884;52.730;6.964;2024-03-22T10:55:52;17.33;;;12.23;;
59099;SDS011;44884;52.730;6.964;2024-03-22T10:58:23;17.55;;;12.52;;
59099;SDS011;44884;52.730;6.964;2024-03-22T11:00:53;19.02;;;12.80;;
59099;SDS011;44884;52.730;6.964;2024-03-22T11:03:24;20.60;;;13.48;;
59099;SDS011;44884;52.730;6.964;2024-03-22T11:05:53;17.38;;;11.90;;
59099;SDS011;44884;52.730;6.964;2024-03-22T11:08:25;19.45;;;12.93;;
59099;SDS011;44884;52.730;6.964;2024-03-22T11:10:51;21.25;;;11.50;;
59099;SDS011;44884;52.730;6.964;2024-03-22T11:13:17;17.60;;;11.63;;
59099;SDS011;44884;52.730;6.964;2024-03-22T11:15:44;17.95;;;11.73;;
59099;SDS011;44884;52.730;6.964;2024-03-22T11:18:12;20.42;;;12.38;;
59099;SDS011;44884;52.730;6.964;2024-03-22T11:20:38;16.15;;;11.10;;
59099;SDS011;44884;52.730;6.964;2024-03-22T11:23:04;16.83;;;11.13;;
59099;SDS011;44884;52.730;6.964;2024-03-22T11:25:31;16.00;;;11.48;;
59099;SDS011;44884;52.730;6.964;2024-03-22T11:27:58;18.92;;;11.27;;
59099;SDS011;44884;52.730;6.964;2024-03-22T11:30:25;14.80;;;10.23;;
59099;SDS011;44884;52.730;6.964;2024-03-22T11:32:52;12.75;;;9.43;;
59099;SDS011;44884;52.730;6.964;2024-03-22T11:35:18;13.88;;;10.75;;
59099;SDS011;44884;52.730;6.964;2024-03-22T11:37:44;19.23;;;11.50;;
59099;SDS011;44884;52.730;6.964;2024-03-22T11:40:10;13.98;;;10.43;;
59099;SDS011;44884;52.730;6.964;2024-03-22T11:42:40;14.82;;;10.57;;
59099;SDS011;44884;52.730;6.964;2024-03-22T11:45:07;13.77;;;9.50;;
59099;SDS011;44884;52.730;6.964;2024-03-22T11:47:34;13.25;;;9.27;;
59099;SDS011;44884;52.730;6.964;2024-03-22T11:50:01;14.15;;;10.68;;
59099;SDS011;44884;52.730;6.964;2024-03-22T11:52:27;15.63;;;10.48;;
59099;SDS011;44884;52.730;6.964;2024-03-22T11:54:54;15.82;;;10.20;;
59099;SDS011;44884;52.730;6.964;2024-03-22T11:57:20;14.82;;;9.95;;
59099;SDS011;44884;52.730;6.964;2024-03-22T11:59:47;19.90;;;9.65;;
59099;SDS011;44884;52.730;6.964;2024-03-22T12:02:13;14.02;;;8.82;;
59099;SDS011;44884;52.730;6.964;2024-03-22T12:04:42;19.33;;;10.55;;
59099;SDS011;44884;52.730;6.964;2024-03-22T12:07:10;11.93;;;8.60;;
59099;SDS011;44884;52.730;6.964;2024-03-22T12:09:37;13.30;;;10.30;;
59099;SDS011;44884;52.730;6.964;2024-03-22T12:12:03;16.20;;;10.43;;
59099;SDS011;44884;52.730;6.964;2024-03-22T12:14:29;12.77;;;9.32;;
59099;SDS011;44884;52.730;6.964;2024-03-22T12:16:56;12.65;;;8.40;;
59099;SDS011;44884;52.730;6.964;2024-03-22T12:19:22;14.50;;;10.18;;
59099;SDS011;44884;52.730;6.964;2024-03-22T12:21:48;14.32;;;9.10;;
59099;SDS011;44884;52.730;6.964;2024-03-22T12:24:14;15.82;;;10.10;;
59099;SDS011;44884;52.730;6.964;2024-03-22T12:26:40;14.25;;;10.10;;
59099;SDS011;44884;52.730;6.964;2024-03-22T12:29:06;13.10;;;8.20;;
59099;SDS011;44884;52.730;6.964;2024-03-22T12:31:32;12.68;;;9.52;;
59099;SDS011;44884;52.730;6.964;2024-03-22T12:33:58;12.23;;;8.40;;
59099;SDS011;44884;52.730;6.964;2024-03-22T12:36:24;10.73;;;8.18;;
59099;SDS011;44884;52.730;6.964;2024-03-22T12:38:50;11.60;;;8.68;;
59099;SDS011;44884;52.730;6.964;2024-03-22T12:41:16;11.70;;;9.27;;
59099;SDS011;44884;52.730;6.964;2024-03-22T12:43:42;9.70;;;7.80;;
59099;SDS011;44884;52.730;6.964;2024-03-22T12:46:08;11.30;;;8.70;;
59099;SDS011;44884;52.730;6.964;2024-03-22T12:48:34;10.60;;;7.97;;
59099;SDS011;44884;52.730;6.964;2024-03-22T12:51:01;11.70;;;8.13;;
59099;SDS011;44884;52.730;6.964;2024-03-22T12:53:27;9.40;;;8.27;;
59099;SDS011;44884;52.730;6.964;2024-03-22T12:55:53;8.75;;;6.53;;
59099;SDS011;44884;52.730;6.964;2024-03-22T12:58:19;8.68;;;6.68;;
59099;SDS011;44884;52.730;6.964;2024-03-22T13:00:45;9.75;;;6.78;;
59099;SDS011;44884;52.730;6.964;2024-03-22T13:03:11;10.45;;;7.28;;
59099;SDS011;44884;52.730;6.964;2024-03-22T13:05:38;12.18;;;6.10;;
59099;SDS011;44884;52.730;6.964;2024-03-22T13:08:04;10.18;;;7.28;;
59099;SDS011;44884;52.730;6.964;2024-03-22T13:10:30;9.70;;;7.10;;
59099;SDS011;44884;52.730;6.964;2024-03-22T13:12:56;8.00;;;7.03;;
59099;SDS011;44884;52.730;6.964;2024-03-22T13:15:22;8.70;;;7.28;;
59099;SDS011;44884;52.730;6.964;2024-03-22T13:17:49;9.30;;;7.10;;
59099;SDS011;44884;52.730;6.964;2024-03-22T13:20:15;8.88;;;7.72;;
59099;SDS011;44884;52.730;6.964;2024-03-22T13:22:43;9.10;;;7.05;;
59099;SDS011;44884;52.730;6.964;2024-03-22T13:25:09;7.93;;;6.53;;
59099;SDS011;44884;52.730;6.964;2024-03-22T13:27:36;9.38;;;6.82;;
59099;SDS011;44884;52.730;6.964;2024-03-22T13:30:05;9.52;;;6.35;;
59099;SDS011;44884;52.730;6.964;2024-03-22T13:32:35;8.00;;;6.45;;
59099;SDS011;44884;52.730;6.964;2024-03-22T13:35:01;10.27;;;7.07;;
59099;SDS011;44884;52.730;6.964;2024-03-22T13:37:27;10.50;;;6.60;;
59099;SDS011;44884;52.730;6.964;2024-03-22T13:39:53;7.22;;;5.10;;
59099;SDS011;44884;52.730;6.964;2024-03-22T13:42:19;12.30;;;6.43;;
59099;SDS011;44884;52.730;6.964;2024-03-22T13:44:45;9.15;;;5.70;;
59099;SDS011;44884;52.730;6.964;2024-03-22T13:47:11;8.63;;;6.28;;
59099;SDS011;44884;52.730;6.964;2024-03-22T13:49:37;11.25;;;6.45;;
59099;SDS011;44884;52.730;6.964;2024-03-22T13:52:06;6.65;;;5.38;;
59099;SDS011;44884;52.730;6.964;2024-03-22T13:54:32;7.65;;;5.65;;
59099;SDS011;44884;52.730;6.964;2024-03-22T13:56:58;8.75;;;6.10;;
59099;SDS011;44884;52.730;6.964;2024-03-22T13:59:25;7.68;;;5.85;;
59099;SDS011;44884;52.730;6.964;2024-03-22T14:01:51;6.45;;;5.75;;
59099;SDS011;44884;52.730;6.964;2024-03-22T14:04:17;8.60;;;5.40;;
59099;SDS011;44884;52.730;6.964;2024-03-22T14:06:47;7.22;;;5.57;;
59099;SDS011;44884;52.730;6.964;2024-03-22T14:09:13;5.60;;;4.85;;
59099;SDS011;44884;52.730;6.964;2024-03-22T14:11:40;7.18;;;5.30;;
59099;SDS011;44884;52.730;6.964;2024-03-22T14:14:07;7.72;;;5.07;;
59099;SDS011;44884;52.730;6.964;2024-03-22T14:16:33;7.20;;;5.40;;
59099;SDS011;44884;52.730;6.964;2024-03-22T14:18:59;7.05;;;5.18;;
59099;SDS011;44884;52.730;6.964;2024-03-22T14:21:26;5.85;;;4.50;;